createdAt,value
2024-01-16T00:02:18.424Z,1.10
2024-01-16T00:07:29.604Z,0.90
2024-01-16T00:12:34.544Z,0.50
2024-01-16T00:17:48.456Z,0.90
2024-01-16T00:23:01.137Z,1.10
2024-01-16T00:28:15.768Z,0.60
2024-01-16T00:33:17.633Z,0.40
2024-01-16T00:38:25.524Z,0.50
2024-01-16T00:43:49.747Z,0.60
2024-01-16T00:49:07.787Z,0.50
2024-01-16T00:54:43.434Z,0.60
2024-01-16T00:59:45.882Z,0.80
2024-01-16T01:04:56.727Z,0.40
2024-01-16T01:10:00.894Z,0.60
2024-01-16T01:15:14.516Z,0.40
2024-01-16T01:20:18.681Z,0.50
2024-01-16T01:25:28.778Z,0.60
2024-01-16T01:30:55.921Z,0.80
2024-01-16T01:36:06.382Z,1.10
2024-01-16T01:41:33.986Z,0.70
2024-01-16T01:46:48.883Z,0.70
2024-01-16T01:52:11.092Z,0.60
2024-01-16T01:57:13.703Z,0.50
2024-01-16T02:02:35.812Z,0.50
2024-01-16T02:07:58.534Z,0.40
2024-01-16T02:13:15.839Z,0.50
2024-01-16T02:19:05.434Z,0.50
2024-01-16T02:24:12.142Z,0.50
2024-01-16T02:29:17.454Z,0.50
2024-01-16T02:34:25.128Z,0.60
2024-01-16T02:40:04.303Z,0.60
2024-01-16T02:45:52.504Z,0.70
2024-01-16T02:51:55.016Z,0.60
2024-01-16T02:57:02.911Z,0.50
2024-01-16T03:02:32.034Z,0.80
2024-01-16T03:07:37.923Z,0.50
2024-01-16T03:12:59.122Z,0.40
2024-01-16T03:18:25.094Z,0.60
2024-01-16T03:23:46.131Z,0.50
2024-01-16T03:29:13.612Z,0.60
2024-01-16T03:34:25.890Z,0.70
2024-01-16T03:39:38.081Z,0.40
2024-01-16T03:45:02.034Z,0.40
2024-01-16T03:50:45.508Z,0.60
2024-01-16T03:55:56.855Z,0.60
2024-01-16T04:01:39.232Z,0.50
2024-01-16T04:07:12.059Z,0.50
2024-01-16T04:12:37.312Z,0.40
2024-01-16T04:17:58.983Z,0.50
2024-01-16T04:24:08.699Z,0.60
2024-01-16T04:30:00.489Z,0.60
2024-01-16T04:35:22.896Z,0.50
2024-01-16T04:40:29.502Z,0.50
2024-01-16T04:45:43.675Z,0.40
2024-01-16T04:51:01.459Z,0.60
2024-01-16T04:56:11.829Z,0.60
2024-01-16T05:01:16.538Z,0.40
2024-01-16T05:07:08.222Z,0.60
2024-01-16T05:12:39.056Z,0.50
2024-01-16T05:17:40.951Z,0.40
2024-01-16T05:22:58.448Z,0.70
2024-01-16T05:28:25.092Z,0.60
2024-01-16T05:33:50.340Z,0.80
2024-01-16T05:39:15.533Z,0.80
2024-01-16T05:44:19.907Z,0.90
2024-01-16T05:49:52.247Z,1.40
2024-01-16T05:54:58.669Z,0.50
2024-01-16T06:00:23.452Z,0.50
2024-01-16T06:05:40.881Z,0.70
2024-01-16T06:10:51.845Z,0.70
2024-01-16T06:15:53.573Z,0.60
2024-01-16T06:20:55.527Z,0.40
2024-01-16T06:26:20.910Z,0.60
2024-01-16T06:31:31.983Z,0.60
2024-01-16T06:36:38.841Z,0.70
2024-01-16T06:41:44.535Z,2.00
2024-01-16T06:46:49.024Z,1.00
2024-01-16T06:52:13.788Z,0.70
2024-01-16T06:57:15.530Z,1.10
2024-01-16T07:02:17.474Z,0.80
2024-01-16T07:07:41.131Z,0.80
2024-01-16T07:12:46.102Z,0.90
2024-01-16T07:17:51.194Z,4.10
2024-01-16T07:22:56.596Z,1.00
2024-01-16T07:27:58.526Z,1.20
2024-01-16T07:33:00.745Z,0.80
2024-01-16T07:38:05.821Z,1.10
2024-01-16T07:43:07.806Z,1.20
2024-01-16T07:48:09.834Z,7.10
2024-01-16T07:53:12.355Z,1.00
2024-01-16T07:58:17.664Z,1.00
2024-01-16T08:03:19.348Z,1.00
2024-01-16T08:08:21.384Z,1.00
2024-01-16T08:13:23.185Z,1.30
2024-01-16T08:18:25.533Z,0.80
2024-01-16T08:23:42.096Z,1.70
2024-01-16T08:28:48.710Z,1.30
2024-01-16T08:33:58.248Z,1.10
2024-01-16T08:39:03.504Z,1.30
2024-01-16T08:44:05.193Z,0.80
2024-01-16T08:49:07.081Z,1.20
2024-01-16T08:54:09.058Z,2.60
2024-01-16T08:59:13.677Z,1.70
2024-01-16T09:04:20.781Z,2.50
2024-01-16T09:09:36.339Z,2.70
2024-01-16T09:14:38.825Z,2.20
2024-01-16T09:19:49.302Z,1.20
2024-01-16T09:24:53.799Z,1.80
2024-01-16T09:29:58.171Z,2.70
2024-01-16T09:35:04.944Z,2.10
2024-01-16T09:40:09.313Z,1.10
2024-01-16T09:45:16.505Z,1.80
2024-01-16T09:50:28.130Z,2.20
2024-01-16T09:55:30.042Z,2.20
2024-01-16T10:00:56.387Z,1.50
2024-01-16T10:06:00.521Z,1.70
2024-01-16T10:11:09.251Z,1.90
2024-01-16T10:16:17.091Z,1.30
2024-01-16T10:21:44.374Z,1.00
2024-01-16T10:26:58.064Z,1.20
2024-01-16T10:32:00.887Z,1.40
2024-01-16T10:37:23.054Z,1.20
2024-01-16T10:42:46.494Z,1.40
2024-01-16T10:47:49.040Z,1.70
2024-01-16T10:52:52.967Z,1.40
2024-01-16T10:58:01.230Z,1.20
2024-01-16T11:03:10.606Z,2.40
2024-01-16T11:08:17.462Z,1.60
2024-01-16T11:13:22.813Z,1.10
2024-01-16T11:18:27.720Z,1.70
2024-01-16T11:23:33.014Z,1.10
2024-01-16T11:28:52.196Z,1.60
2024-01-16T11:33:57.007Z,2.20
2024-01-16T11:38:59.302Z,0.70
2024-01-16T11:44:01.044Z,2.50
2024-01-16T11:49:05.480Z,1.90
2024-01-16T11:54:12.115Z,1.60
2024-01-16T11:59:55.326Z,1.90
2024-01-16T12:04:57.257Z,1.50
2024-01-16T12:10:05.162Z,2.10
2024-01-16T12:15:07.505Z,1.40
2024-01-16T12:20:20.430Z,2.00
2024-01-16T12:25:22.392Z,1.50
2024-01-16T12:30:28.734Z,1.30
2024-01-16T12:35:45.327Z,1.20
2024-01-16T12:40:54.880Z,1.10
2024-01-16T12:46:02.085Z,1.00
2024-01-16T12:51:17.693Z,1.10
2024-01-16T12:56:31.780Z,0.90
2024-01-16T13:02:01.837Z,2.00
2024-01-16T13:07:16.999Z,2.40
2024-01-16T13:12:22.334Z,1.70
2024-01-16T13:17:27.093Z,1.70
2024-01-16T13:22:43.316Z,1.20
2024-01-16T13:27:55.303Z,1.10
2024-01-16T13:32:57.352Z,1.00
2024-01-16T13:38:04.478Z,2.00
2024-01-16T13:43:08.930Z,1.40
2024-01-16T13:48:33.695Z,1.10
2024-01-16T13:53:38.925Z,2.10
2024-01-16T13:58:40.574Z,1.80
2024-01-16T14:03:47.438Z,3.10
2024-01-16T14:08:51.601Z,1.80
2024-01-16T14:13:53.818Z,2.60
2024-01-16T14:19:07.355Z,2.30
2024-01-16T14:24:10.472Z,1.90
2024-01-16T14:29:16.115Z,1.40
2024-01-16T14:34:21.319Z,2.10
2024-01-16T14:40:01.888Z,1.10
2024-01-16T14:45:12.047Z,2.00
2024-01-16T14:50:24.081Z,5.90
2024-01-16T14:55:29.313Z,3.50
2024-01-16T15:00:33.467Z,5.20
2024-01-16T15:05:35.320Z,4.60
2024-01-16T15:10:42.889Z,5.40
2024-01-16T15:15:57.699Z,6.90
2024-01-16T15:21:02.965Z,8.90
2024-01-16T15:26:15.379Z,5.00
2024-01-16T15:31:22.132Z,6.00
2024-01-16T15:36:35.162Z,9.40
2024-01-16T15:41:38.448Z,28.30
2024-01-16T15:47:01.826Z,14.10
2024-01-16T15:52:04.195Z,7.80
2024-01-16T15:57:09.859Z,8.00
2024-01-16T16:02:21.196Z,4.70
2024-01-16T16:07:25.585Z,3.90
2024-01-16T16:12:38.263Z,2.10
2024-01-16T16:18:11.592Z,3.80
2024-01-16T16:23:18.770Z,5.50
2024-01-16T16:28:23.254Z,27.80
2024-01-16T16:33:25.346Z,56.80
2024-01-16T16:38:27.362Z,34.10
2024-01-16T16:43:51.554Z,12.00
2024-01-16T16:48:53.583Z,36.10
2024-01-16T16:53:58.213Z,27.80
2024-01-16T16:58:59.995Z,13.30
2024-01-16T17:04:09.594Z,27.10
2024-01-16T17:09:12.153Z,27.70
2024-01-16T17:19:17.535Z,8.10
2024-01-16T17:24:19.295Z,7.20
2024-01-16T17:29:32.667Z,10.00
2024-01-16T17:34:37.106Z,15.60
2024-01-16T17:39:39.255Z,15.70
2024-01-16T17:44:53.372Z,11.60
2024-01-16T17:49:55.815Z,19.50
2024-01-16T17:55:07.229Z,31.70
2024-01-16T18:00:12.632Z,22.80
2024-01-16T18:05:24.200Z,14.90
2024-01-16T18:10:34.695Z,16.10
2024-01-16T18:15:37.245Z,28.00
2024-01-16T18:20:50.884Z,26.40
2024-01-16T18:25:58.146Z,29.40
2024-01-16T18:31:04.958Z,23.50
2024-01-16T18:36:07.313Z,36.50
2024-01-16T18:41:09.572Z,30.30
2024-01-16T18:46:23.355Z,28.30
2024-01-16T18:51:39.289Z,20.70
2024-01-16T18:56:52.686Z,18.40
2024-01-16T19:01:59.404Z,19.60
2024-01-16T19:07:12.179Z,30.80
2024-01-16T19:12:13.975Z,24.50
2024-01-16T19:17:15.876Z,22.20
2024-01-16T19:22:20.962Z,27.60
2024-01-16T19:27:22.830Z,18.30
2024-01-16T19:32:28.239Z,16.70
2024-01-16T19:37:30.084Z,16.40
2024-01-16T19:42:31.700Z,15.50
2024-01-16T19:47:41.409Z,17.90
2024-01-16T19:52:43.653Z,19.20
2024-01-16T19:57:49.237Z,21.50
2024-01-16T20:02:55.440Z,24.80
2024-01-16T20:07:57.258Z,25.90
2024-01-16T20:13:03.362Z,25.20
2024-01-16T20:18:09.243Z,19.60
2024-01-16T20:23:12.880Z,18.20
2024-01-16T20:28:15.721Z,18.40
2024-01-16T20:33:17.864Z,14.50
2024-01-16T20:38:19.757Z,17.30
2024-01-16T20:43:21.801Z,23.60
2024-01-16T20:48:52.934Z,26.60
2024-01-16T20:54:03.553Z,20.30
2024-01-16T20:59:28.325Z,31.60
2024-01-16T21:04:30.374Z,20.80
2024-01-16T21:09:39.582Z,22.30
2024-01-16T21:14:44.532Z,11.40
2024-01-16T21:19:57.449Z,15.90
2024-01-16T21:24:59.338Z,12.60
2024-01-16T21:30:01.319Z,14.80
2024-01-16T21:35:18.167Z,11.80
2024-01-16T21:40:20.409Z,13.50
2024-01-16T21:45:31.913Z,17.30
2024-01-16T21:50:38.310Z,21.40
2024-01-16T21:56:07.138Z,12.60
2024-01-16T22:01:36.609Z,19.00
2024-01-16T22:06:38.672Z,27.80
2024-01-16T22:12:00.112Z,20.60
2024-01-16T22:17:35.456Z,15.00
2024-01-16T22:22:41.151Z,18.90
2024-01-16T22:28:48.245Z,17.70
2024-01-16T22:34:00.953Z,22.70
2024-01-16T22:40:06.386Z,16.90
2024-01-16T22:45:20.953Z,13.00
2024-01-16T22:51:01.304Z,16.50
2024-01-16T22:56:30.107Z,19.30
2024-01-16T23:02:54.992Z,15.60
2024-01-16T23:08:32.891Z,13.00
2024-01-16T23:14:03.196Z,16.10
2024-01-16T23:19:47.501Z,20.40
2024-01-16T23:25:37.373Z,13.80
2024-01-16T23:31:21.111Z,11.70
2024-01-16T23:37:17.241Z,7.80
2024-01-16T23:42:42.376Z,10.90
2024-01-16T23:48:18.885Z,10.90
2024-01-16T23:54:02.891Z,8.70
2024-01-16T23:59:40.520Z,4.40
